createdAt,value
2023-01-13T00:00:05.561Z,1.64
2023-01-13T00:03:13.633Z,1.53
2023-01-13T00:06:19.422Z,1.63
2023-01-13T00:09:21.920Z,1.80
2023-01-13T00:12:24.729Z,1.45
2023-01-13T00:15:26.869Z,1.51
2023-01-13T00:18:29.963Z,1.61
2023-01-13T00:21:32.124Z,1.71
2023-01-13T00:24:34.912Z,1.53
2023-01-13T00:27:37.262Z,1.50
2023-01-13T00:30:40.523Z,1.57
2023-01-13T00:33:43.318Z,1.56
2023-01-13T00:36:45.871Z,1.50
2023-01-13T00:39:48.211Z,1.47
2023-01-13T00:43:09.108Z,1.62
2023-01-13T00:46:13.941Z,1.68
2023-01-13T00:49:16.581Z,1.67
2023-01-13T00:52:18.855Z,1.60
2023-01-13T00:55:21.377Z,1.69
2023-01-13T00:58:23.815Z,1.63
2023-01-13T01:01:26.462Z,1.64
2023-01-13T01:04:28.773Z,1.50
2023-01-13T01:07:31.273Z,1.34
2023-01-13T01:10:33.491Z,1.51
2023-01-13T01:13:36.985Z,1.52
2023-01-13T01:16:40.947Z,1.58
2023-01-13T01:19:43.832Z,1.57
2023-01-13T01:22:46.057Z,1.65
2023-01-13T01:25:48.835Z,1.69
2023-01-13T01:28:51.511Z,1.58
2023-01-13T01:31:54.337Z,1.65
2023-01-13T01:34:56.554Z,1.63
2023-01-13T01:37:59.089Z,1.56
2023-01-13T01:41:01.304Z,1.71
2023-01-13T01:44:41.669Z,1.74
2023-01-13T01:47:48.038Z,1.76
2023-01-13T01:50:52.437Z,1.70
2023-01-13T01:53:56.715Z,1.57
2023-01-13T01:56:59.389Z,1.69
2023-01-13T02:00:05.019Z,1.73
2023-01-13T02:03:16.087Z,1.38
2023-01-13T02:06:19.077Z,1.39
2023-01-13T02:09:21.196Z,1.49
2023-01-13T02:12:32.540Z,1.64
2023-01-13T02:16:21.248Z,1.69
2023-01-13T02:19:39.742Z,1.74
2023-01-13T02:23:31.804Z,1.47
2023-01-13T02:26:56.109Z,1.69
2023-01-13T02:30:26.648Z,1.83
2023-01-13T02:33:31.859Z,1.89
2023-01-13T02:36:39.853Z,1.90
2023-01-13T02:40:00.308Z,1.87
2023-01-13T02:43:28.890Z,1.95
2023-01-13T02:46:36.288Z,1.89
2023-01-13T02:49:46.536Z,2.02
2023-01-13T02:52:54.099Z,2.03
2023-01-13T02:55:59.541Z,1.94
2023-01-13T02:59:02.304Z,2.08
2023-01-13T03:02:06.278Z,2.14
2023-01-13T03:05:14.786Z,2.18
2023-01-13T03:08:42.838Z,2.00
2023-01-13T03:12:01.987Z,2.05
2023-01-13T03:15:18.177Z,2.23
2023-01-13T03:18:42.912Z,2.22
2023-01-13T03:22:22.815Z,2.09
2023-01-13T03:25:29.929Z,2.05
2023-01-13T03:28:49.121Z,2.10
2023-01-13T03:32:02.120Z,2.02
2023-01-13T03:35:16.500Z,2.28
2023-01-13T03:38:24.544Z,2.31
2023-01-13T03:41:36.689Z,2.35
2023-01-13T03:44:50.678Z,2.21
2023-01-13T03:47:55.817Z,2.11
2023-01-13T03:51:06.553Z,1.92
2023-01-13T03:54:13.918Z,2.03
2023-01-13T03:57:19.346Z,1.97
2023-01-13T04:00:33.902Z,1.74
2023-01-13T04:03:44.040Z,1.95
2023-01-13T04:06:55.020Z,2.34
2023-01-13T04:10:02.033Z,2.33
2023-01-13T04:13:16.326Z,2.39
2023-01-13T04:16:18.965Z,2.32
2023-01-13T04:19:21.861Z,2.36
2023-01-13T04:22:24.455Z,2.55
2023-01-13T04:25:26.942Z,2.71
2023-01-13T04:28:29.420Z,2.70
2023-01-13T04:31:31.932Z,2.70
2023-01-13T04:34:34.487Z,2.62
2023-01-13T04:37:36.925Z,2.63
2023-01-13T04:40:40.902Z,2.67
2023-01-13T04:43:43.044Z,2.44
2023-01-13T04:46:46.471Z,2.42
2023-01-13T04:49:48.623Z,2.45
2023-01-13T04:52:52.215Z,2.48
2023-01-13T04:55:55.023Z,2.65
2023-01-13T04:58:57.791Z,2.72
2023-01-13T05:02:00.385Z,2.44
2023-01-13T05:05:03.143Z,2.33
2023-01-13T05:08:05.641Z,2.37
2023-01-13T05:11:28.115Z,2.34
2023-01-13T05:14:49.087Z,2.32
2023-01-13T05:17:51.836Z,2.22
2023-01-13T05:20:54.100Z,2.25
2023-01-13T05:24:15.418Z,2.42
2023-01-13T05:27:17.632Z,2.40
2023-01-13T05:30:22.650Z,2.35
2023-01-13T05:33:24.913Z,2.23
2023-01-13T05:36:27.683Z,2.04
2023-01-13T05:39:49.881Z,2.12
2023-01-13T05:43:24.781Z,1.89
2023-01-13T05:46:27.199Z,1.91
2023-01-13T05:49:29.817Z,1.82
2023-01-13T05:52:32.173Z,1.88
2023-01-13T05:55:34.730Z,1.76
2023-01-13T05:58:37.510Z,1.84
2023-01-13T06:01:39.991Z,1.93
2023-01-13T06:04:42.657Z,1.97
2023-01-13T06:07:44.924Z,1.98
2023-01-13T06:10:47.372Z,2.10
2023-01-13T06:13:49.683Z,1.92
2023-01-13T06:16:52.168Z,1.58
2023-01-13T06:19:54.534Z,1.66
2023-01-13T06:22:58.063Z,1.55
2023-01-13T06:26:08.320Z,1.86
2023-01-13T06:29:14.030Z,1.46
2023-01-13T06:32:18.729Z,1.35
2023-01-13T06:35:28.258Z,1.57
2023-01-13T06:38:31.626Z,1.89
2023-01-13T06:41:52.923Z,1.87
2023-01-13T06:44:55.195Z,2.07
2023-01-13T06:47:59.879Z,2.26
2023-01-13T06:51:04.261Z,2.37
2023-01-13T06:54:06.927Z,2.49
2023-01-13T06:57:09.838Z,2.55
2023-01-13T07:00:13.260Z,2.66
2023-01-13T07:03:17.493Z,2.67
2023-01-13T07:06:21.377Z,2.65
2023-01-13T07:09:23.819Z,2.67
2023-01-13T07:12:26.712Z,2.79
2023-01-13T07:15:29.199Z,2.78
2023-01-13T07:18:33.094Z,2.76
2023-01-13T07:21:35.412Z,2.92
2023-01-13T07:24:38.689Z,3.04
2023-01-13T07:27:41.037Z,3.29
2023-01-13T07:30:43.671Z,3.26
2023-01-13T07:33:46.068Z,3.37
2023-01-13T07:36:48.913Z,3.52
2023-01-13T07:39:51.600Z,3.64
2023-01-13T07:43:12.712Z,3.67
2023-01-13T07:46:15.208Z,3.74
2023-01-13T07:49:17.938Z,3.97
2023-01-13T07:52:20.130Z,3.93
2023-01-13T07:55:23.015Z,4.07
2023-01-13T07:58:26.950Z,4.00
2023-01-13T08:01:29.551Z,3.96
2023-01-13T08:04:32.486Z,4.17
2023-01-13T08:07:34.952Z,4.34
2023-01-13T08:10:38.369Z,4.35
2023-01-13T08:13:40.752Z,4.22
2023-01-13T08:16:43.422Z,4.19
2023-01-13T08:19:45.831Z,4.15
2023-01-13T08:22:48.490Z,4.11
2023-01-13T08:25:50.790Z,4.37
2023-01-13T08:28:53.670Z,4.38
2023-01-13T08:31:56.046Z,4.27
2023-01-13T08:34:58.565Z,3.99
2023-01-13T08:38:00.885Z,3.71
2023-01-13T08:41:15.211Z,3.66
2023-01-13T08:44:17.490Z,3.96
2023-01-13T08:47:20.746Z,3.82
2023-01-13T08:50:23.382Z,3.99
2023-01-13T08:53:26.186Z,3.92
2023-01-13T08:56:31.042Z,4.03
2023-01-13T08:59:35.077Z,4.13
2023-01-13T09:02:38.667Z,4.34
2023-01-13T09:05:41.513Z,4.15
2023-01-13T09:08:44.361Z,4.11
2023-01-13T09:12:09.846Z,3.96
2023-01-13T09:15:13.235Z,3.96
2023-01-13T09:18:15.928Z,4.00
2023-01-13T09:21:19.907Z,4.12
2023-01-13T09:24:23.461Z,4.19
2023-01-13T09:27:25.749Z,4.61
2023-01-13T09:30:28.399Z,4.29
2023-01-13T09:33:49.303Z,4.31
2023-01-13T09:36:52.112Z,4.38
2023-01-13T09:39:54.510Z,4.44
2023-01-13T09:43:35.266Z,4.60
2023-01-13T09:46:44.025Z,4.44
2023-01-13T09:49:46.831Z,4.42
2023-01-13T09:52:49.358Z,4.46
2023-01-13T09:55:52.899Z,4.35
2023-01-13T09:58:55.299Z,4.33
2023-01-13T10:02:18.532Z,4.30
2023-01-13T10:05:37.917Z,4.36
2023-01-13T10:08:45.191Z,4.70
2023-01-13T10:12:08.335Z,4.71
2023-01-13T10:15:16.777Z,4.57
2023-01-13T10:18:57.738Z,4.82
2023-01-13T10:22:24.529Z,4.71
2023-01-13T10:25:36.527Z,4.83
2023-01-13T10:28:38.860Z,5.00
2023-01-13T10:31:41.419Z,4.91
2023-01-13T10:34:51.604Z,4.78
2023-01-13T10:37:57.394Z,4.63
2023-01-13T10:41:05.804Z,4.87
2023-01-13T10:44:19.018Z,5.11
2023-01-13T10:47:25.791Z,5.11
2023-01-13T10:50:29.414Z,5.27
2023-01-13T10:53:31.583Z,4.84
2023-01-13T10:56:34.303Z,5.13
2023-01-13T10:59:36.518Z,4.71
2023-01-13T11:02:39.260Z,4.51
2023-01-13T11:05:52.764Z,4.66
2023-01-13T11:08:58.380Z,4.60
2023-01-13T11:12:03.113Z,4.78
2023-01-13T11:15:13.979Z,4.86
2023-01-13T11:18:31.084Z,4.70
2023-01-13T11:21:56.374Z,4.49
2023-01-13T11:25:01.629Z,4.65
2023-01-13T11:28:17.569Z,4.64
2023-01-13T11:31:25.357Z,4.58
2023-01-13T11:34:39.889Z,4.60
2023-01-13T11:37:50.300Z,4.71
2023-01-13T11:40:53.366Z,4.75
2023-01-13T11:44:13.892Z,4.58
2023-01-13T11:47:21.310Z,4.50
2023-01-13T11:50:42.516Z,4.47
2023-01-13T11:54:14.178Z,4.15
2023-01-13T11:57:35.634Z,4.55
2023-01-13T12:01:02.602Z,4.52
2023-01-13T12:04:43.263Z,4.44
2023-01-13T12:08:19.831Z,4.52
2023-01-13T12:11:30.850Z,4.57
2023-01-13T12:14:39.432Z,4.58
2023-01-13T12:18:15.971Z,4.81
2023-01-13T12:21:27.195Z,4.65
2023-01-13T12:24:41.020Z,4.44
2023-01-13T12:27:48.100Z,4.55
2023-01-13T12:31:02.921Z,4.60
2023-01-13T12:34:43.048Z,4.61
2023-01-13T12:38:00.154Z,4.59
2023-01-13T12:41:23.452Z,4.66
2023-01-13T12:44:25.989Z,4.60
2023-01-13T12:47:35.124Z,4.82
2023-01-13T12:50:41.713Z,4.47
2023-01-13T12:53:44.173Z,4.78
2023-01-13T12:56:47.218Z,4.77
2023-01-13T13:00:05.039Z,4.75
2023-01-13T13:03:18.547Z,4.98
2023-01-13T13:06:31.238Z,4.90
2023-01-13T13:09:42.949Z,5.07
2023-01-13T13:13:03.845Z,5.05
2023-01-13T13:16:26.767Z,5.05
2023-01-13T13:19:31.886Z,4.77
2023-01-13T13:22:44.543Z,4.92
2023-01-13T13:26:20.336Z,4.93
2023-01-13T13:29:29.181Z,5.27
2023-01-13T13:32:50.203Z,4.94
2023-01-13T13:36:21.992Z,5.14
2023-01-13T13:39:49.153Z,5.17
2023-01-13T13:43:15.488Z,5.32
2023-01-13T13:46:48.075Z,5.24
2023-01-13T13:49:54.418Z,5.27
2023-01-13T13:53:05.231Z,5.39
2023-01-13T13:56:24.593Z,5.63
2023-01-13T13:59:33.544Z,5.44
2023-01-13T14:02:37.731Z,5.50
2023-01-13T14:05:53.378Z,5.38
2023-01-13T14:08:55.531Z,5.52
2023-01-13T14:12:06.616Z,5.73
2023-01-13T14:15:32.434Z,5.56
2023-01-13T14:18:47.341Z,5.69
2023-01-13T14:21:49.497Z,5.73
2023-01-13T14:24:55.528Z,5.91
2023-01-13T14:28:03.721Z,5.44
2023-01-13T14:31:09.917Z,5.51
2023-01-13T14:34:32.213Z,5.43
2023-01-13T14:37:38.951Z,5.73
2023-01-13T14:40:45.482Z,5.70
2023-01-13T14:43:50.262Z,5.71
2023-01-13T14:46:57.511Z,5.82
2023-01-13T14:50:07.575Z,5.72
2023-01-13T14:53:47.084Z,5.68
2023-01-13T14:56:53.707Z,5.68
2023-01-13T15:00:14.800Z,5.55
2023-01-13T15:03:19.619Z,5.50
2023-01-13T15:06:24.259Z,5.39
2023-01-13T15:09:32.691Z,5.41
2023-01-13T15:12:39.377Z,5.61
2023-01-13T15:15:42.068Z,5.44
2023-01-13T15:18:45.571Z,5.62
2023-01-13T15:21:48.548Z,5.80
2023-01-13T15:24:51.136Z,5.83
2023-01-13T15:27:54.173Z,5.57
2023-01-13T15:31:00.621Z,5.58
2023-01-13T15:34:03.161Z,5.51
2023-01-13T15:37:05.544Z,5.29
2023-01-13T15:40:20.481Z,5.39
2023-01-13T15:43:42.941Z,5.32
2023-01-13T15:46:45.435Z,5.37
2023-01-13T15:49:47.699Z,5.47
2023-01-13T15:52:50.247Z,5.49
2023-01-13T15:55:55.450Z,5.34
2023-01-13T15:58:57.999Z,5.32
2023-01-13T16:02:00.195Z,5.45
2023-01-13T16:05:03.014Z,5.43
2023-01-13T16:08:16.389Z,5.39
2023-01-13T16:11:18.916Z,5.27
2023-01-13T16:14:21.201Z,5.40
2023-01-13T16:17:27.292Z,5.38
2023-01-13T16:20:29.997Z,5.47
2023-01-13T16:23:32.730Z,5.52
2023-01-13T16:26:37.555Z,5.40
2023-01-13T16:29:40.055Z,5.47
2023-01-13T16:32:42.255Z,5.53
2023-01-13T16:36:09.470Z,5.41
2023-01-13T16:39:20.573Z,5.49
2023-01-13T16:42:23.182Z,5.44
2023-01-13T16:45:25.849Z,5.53
2023-01-13T16:48:31.338Z,5.57
2023-01-13T16:51:33.900Z,5.66
2023-01-13T16:54:36.611Z,5.55
2023-01-13T16:57:38.948Z,5.62
2023-01-13T17:00:41.568Z,5.38
2023-01-13T17:03:44.447Z,5.35
2023-01-13T17:07:00.837Z,5.39
2023-01-13T17:10:03.911Z,5.48
2023-01-13T17:13:15.616Z,5.43
2023-01-13T17:16:21.690Z,5.42
2023-01-13T17:19:25.641Z,5.35
2023-01-13T17:22:28.006Z,5.46
2023-01-13T17:25:30.704Z,5.38
2023-01-13T17:28:33.232Z,5.43
2023-01-13T17:31:36.035Z,5.55
2023-01-13T17:34:40.119Z,5.40
2023-01-13T17:37:42.649Z,5.38
2023-01-13T17:40:44.977Z,5.41
2023-01-13T17:43:48.351Z,5.44
2023-01-13T17:46:50.542Z,5.61
2023-01-13T17:49:53.008Z,5.70
2023-01-13T17:52:55.446Z,5.55
2023-01-13T17:55:59.593Z,5.61
2023-01-13T17:59:01.831Z,5.57
2023-01-13T18:02:04.856Z,5.71
2023-01-13T18:05:08.061Z,5.59
2023-01-13T18:08:10.402Z,5.67
2023-01-13T18:11:13.836Z,5.78
2023-01-13T18:14:16.391Z,5.80
2023-01-13T18:17:18.956Z,5.69
2023-01-13T18:20:40.358Z,5.56
2023-01-13T18:24:01.215Z,5.79
2023-01-13T18:27:18.807Z,5.54
2023-01-13T18:30:21.450Z,5.58
2023-01-13T18:33:24.139Z,5.74
2023-01-13T18:36:28.019Z,5.71
2023-01-13T18:39:30.400Z,5.67
2023-01-13T18:42:51.358Z,5.56
2023-01-13T18:45:53.690Z,5.57
2023-01-13T18:48:56.312Z,5.92
2023-01-13T18:51:58.491Z,5.68
2023-01-13T18:55:00.996Z,5.61
2023-01-13T18:58:03.380Z,5.79
2023-01-13T19:01:06.679Z,5.71
2023-01-13T19:04:15.526Z,5.75
2023-01-13T19:07:23.522Z,5.85
2023-01-13T19:10:27.704Z,5.95
2023-01-13T19:13:30.507Z,6.09
2023-01-13T19:16:32.644Z,5.96
2023-01-13T19:19:46.450Z,5.66
2023-01-13T19:22:53.956Z,5.81
2023-01-13T19:26:08.360Z,5.93
2023-01-13T19:29:10.628Z,5.98
2023-01-13T19:32:14.128Z,5.81
2023-01-13T19:35:17.995Z,5.65
2023-01-13T19:38:21.380Z,5.71
2023-01-13T19:41:42.322Z,5.81
2023-01-13T19:45:03.437Z,5.76
2023-01-13T19:48:07.287Z,5.66
2023-01-13T19:51:10.468Z,5.74
2023-01-13T19:54:12.723Z,5.86
2023-01-13T19:57:15.631Z,5.72
2023-01-13T20:00:20.816Z,5.66
2023-01-13T20:03:25.926Z,5.66
2023-01-13T20:06:28.747Z,5.66
2023-01-13T20:09:32.448Z,5.88
2023-01-13T20:12:34.606Z,6.11
2023-01-13T20:15:40.414Z,5.80
2023-01-13T20:18:42.655Z,5.94
2023-01-13T20:21:45.195Z,5.76
2023-01-13T20:24:48.469Z,5.58
2023-01-13T20:27:51.099Z,5.52
2023-01-13T20:30:53.531Z,5.61
2023-01-13T20:33:56.012Z,5.54
2023-01-13T20:37:00.599Z,5.28
2023-01-13T20:40:05.338Z,5.58
2023-01-13T20:43:07.631Z,5.58
2023-01-13T20:46:10.174Z,5.55
2023-01-13T20:49:14.761Z,5.57
2023-01-13T20:52:17.290Z,5.52
2023-01-13T20:55:19.482Z,5.57
2023-01-13T20:58:22.500Z,5.60
2023-01-13T21:01:25.275Z,5.59
2023-01-13T21:04:29.630Z,5.48
2023-01-13T21:07:31.868Z,5.57
2023-01-13T21:10:34.475Z,5.54
2023-01-13T21:13:55.144Z,5.47
2023-01-13T21:16:57.973Z,5.47
2023-01-13T21:20:00.260Z,5.52
2023-01-13T21:23:04.177Z,5.43
2023-01-13T21:26:07.657Z,5.41
2023-01-13T21:29:10.295Z,5.37
2023-01-13T21:32:12.684Z,5.30
2023-01-13T21:35:15.357Z,5.50
2023-01-13T21:38:17.517Z,5.41
2023-01-13T21:41:40.135Z,5.46
2023-01-13T21:45:00.981Z,5.60
2023-01-13T21:48:03.924Z,5.52
2023-01-13T21:51:06.206Z,5.58
2023-01-13T21:54:08.722Z,5.46
2023-01-13T21:57:11.589Z,5.55
2023-01-13T22:00:15.591Z,5.78
2023-01-13T22:03:18.723Z,5.54
2023-01-13T22:06:21.192Z,5.60
2023-01-13T22:09:23.840Z,5.47
2023-01-13T22:12:26.975Z,5.41
2023-01-13T22:15:31.083Z,5.53
2023-01-13T22:18:33.265Z,5.45
2023-01-13T22:21:36.569Z,5.12
2023-01-13T22:24:43.179Z,5.20
2023-01-13T22:27:45.719Z,5.33
2023-01-13T22:30:49.794Z,5.42
2023-01-13T22:33:54.360Z,5.81
2023-01-13T22:36:56.582Z,5.66
2023-01-13T22:39:59.157Z,5.52
2023-01-13T22:43:01.418Z,5.47
2023-01-13T22:46:10.249Z,5.55
2023-01-13T22:49:14.032Z,5.58
2023-01-13T22:52:17.551Z,5.71
2023-01-13T22:55:19.872Z,5.63
2023-01-13T22:58:23.368Z,5.72
2023-01-13T23:01:27.664Z,5.76
2023-01-13T23:04:30.185Z,5.78
2023-01-13T23:07:32.393Z,6.02
2023-01-13T23:10:35.177Z,5.61
2023-01-13T23:13:39.328Z,5.66
2023-01-13T23:16:42.017Z,5.81
2023-01-13T23:19:44.321Z,5.53
2023-01-13T23:22:46.832Z,5.72
2023-01-13T23:25:50.741Z,5.54
2023-01-13T23:28:53.346Z,5.55
2023-01-13T23:31:55.622Z,5.59
2023-01-13T23:34:58.193Z,5.51
2023-01-13T23:38:00.414Z,5.53
2023-01-13T23:41:07.597Z,5.45
2023-01-13T23:44:10.216Z,5.50
2023-01-13T23:47:12.800Z,5.44
2023-01-13T23:50:15.183Z,5.36
2023-01-13T23:53:17.621Z,5.39
2023-01-13T23:56:22.851Z,5.42
2023-01-13T23:59:25.572Z,5.48
